Weather at Cortina Airport [CLOSED]

Public forecast

Using degrees Celsius for public forecast. Weather courtesy of forecast.io.

Closest aviation weather report (METAR) to Cortina Airport

Closest report is Dobbiaco - Toblach, 10.3 nm (19.2 km) NNE. Retrieved 2020/10/25 15:55 UTC (47 minutes ago):

LIVD 251555Z /////KT 9999 BKN050 10/04 Q1014 RMK BKN VIS MIN 9999 BLU

Closest aviation forecast (TAF) to Cortina Airport

Closest forecast is Bolzano Airport, 33.4 nm (61.9 km) WSW. Retrieved 2020/10/25 12:21 UTC (4 hours ago):

TAF LIPB 251115Z 2512/2612 VRB05KT 9999 SCT060 TEMPO 2605/2612 SHRA